createdAt,value
2022-11-24T00:04:45.964Z,11.38
2022-11-24T00:10:06.985Z,16.13
2022-11-24T00:15:27.851Z,22.48
2022-11-24T00:20:54.437Z,14.50
2022-11-24T00:26:20.534Z,11.27
2022-11-24T00:31:42.037Z,22.15
2022-11-24T00:37:02.490Z,9.77
2022-11-24T00:42:23.287Z,11.77
2022-11-24T00:47:43.682Z,13.18
2022-11-24T00:53:04.459Z,17.40
2022-11-24T00:58:25.386Z,14.85
2022-11-24T01:03:47.340Z,22.25
2022-11-24T01:09:07.902Z,16.30
2022-11-24T01:14:28.700Z,20.55
2022-11-24T01:19:49.191Z,19.77
2022-11-24T01:25:11.655Z,12.63
2022-11-24T01:30:32.189Z,16.23
2022-11-24T01:35:53.622Z,17.45
2022-11-24T01:41:17.563Z,25.23
2022-11-24T01:46:48.642Z,15.65
2022-11-24T01:52:15.871Z,18.52
2022-11-24T01:57:40.919Z,12.10
2022-11-24T02:03:01.794Z,15.68
2022-11-24T02:08:53.200Z,17.08
2022-11-24T02:14:18.008Z,21.17
2022-11-24T02:19:52.964Z,12.80
2022-11-24T02:30:40.253Z,17.40
2022-11-24T02:36:00.924Z,19.15
2022-11-24T02:41:25.197Z,19.80
2022-11-24T02:46:46.457Z,21.45
2022-11-24T02:52:07.232Z,19.13
2022-11-24T02:57:27.773Z,23.73
2022-11-24T03:02:48.126Z,21.02
2022-11-24T03:08:08.823Z,37.15
2022-11-24T03:13:29.601Z,25.70
2022-11-24T03:18:53.831Z,26.00
2022-11-24T03:24:14.416Z,27.85
2022-11-24T03:29:34.667Z,19.92
2022-11-24T03:34:55.096Z,27.50
2022-11-24T03:40:15.970Z,19.92
2022-11-24T03:45:52.386Z,27.10
2022-11-24T03:51:13.013Z,27.27
2022-11-24T03:56:33.614Z,15.35
2022-11-24T04:01:54.022Z,34.33
2022-11-24T04:07:14.876Z,26.08
2022-11-24T04:12:44.265Z,30.38
2022-11-24T04:18:04.916Z,18.30
2022-11-24T04:23:25.719Z,24.33
2022-11-24T04:28:46.217Z,28.75
2022-11-24T04:34:06.652Z,28.30
2022-11-24T04:39:28.581Z,25.83
2022-11-24T04:44:49.704Z,35.33
2022-11-24T04:50:10.420Z,29.70
2022-11-24T04:55:30.646Z,27.55
2022-11-24T05:00:51.357Z,20.10
2022-11-24T05:06:12.009Z,28.08
2022-11-24T05:11:34.056Z,18.73
2022-11-24T05:16:54.545Z,19.20
2022-11-24T05:22:15.214Z,27.90
2022-11-24T05:27:35.479Z,31.77
2022-11-24T05:32:57.014Z,21.08
2022-11-24T05:38:18.091Z,33.30
2022-11-24T05:43:38.871Z,29.23
2022-11-24T05:48:59.562Z,34.85
2022-11-24T05:54:19.959Z,24.63
2022-11-24T05:59:40.290Z,32.33
2022-11-24T06:05:00.817Z,32.33
2022-11-24T06:10:23.829Z,29.10
2022-11-24T06:15:44.227Z,30.77
2022-11-24T06:21:11.289Z,32.55
2022-11-24T06:26:32.647Z,30.35
2022-11-24T06:31:53.148Z,24.38
2022-11-24T06:37:13.900Z,34.88
2022-11-24T06:42:35.014Z,40.50
2022-11-24T06:47:56.587Z,34.67
2022-11-24T06:53:17.633Z,39.85
2022-11-24T06:58:43.150Z,39.97
2022-11-24T07:04:04.433Z,33.47
2022-11-24T07:09:24.674Z,27.17
2022-11-24T07:14:45.391Z,29.55
2022-11-24T07:20:07.241Z,25.20
2022-11-24T07:25:28.029Z,32.83
2022-11-24T07:30:48.390Z,29.38
2022-11-24T07:36:09.611Z,37.38
2022-11-24T07:41:30.279Z,32.60
2022-11-24T07:46:51.342Z,33.33
2022-11-24T07:52:11.878Z,33.33
2022-11-24T07:57:32.411Z,30.00
2022-11-24T08:02:53.555Z,32.75
2022-11-24T08:08:14.057Z,42.03
2022-11-24T08:13:35.944Z,33.55
2022-11-24T08:18:56.641Z,32.53
2022-11-24T08:24:17.498Z,39.13
2022-11-24T08:29:37.942Z,29.55
2022-11-24T08:35:13.043Z,38.17
2022-11-24T08:40:34.942Z,24.80
2022-11-24T08:46:00.358Z,28.98
2022-11-24T08:51:23.658Z,34.08
2022-11-24T08:56:44.842Z,32.53
2022-11-24T09:02:06.422Z,33.38
2022-11-24T09:07:27.525Z,27.67
2022-11-24T09:12:48.350Z,33.72
2022-11-24T09:18:09.178Z,32.33
2022-11-24T09:23:29.679Z,40.00
2022-11-24T09:28:54.236Z,28.92
2022-11-24T09:34:15.711Z,40.10
2022-11-24T09:39:36.519Z,29.65
2022-11-24T09:45:35.441Z,26.42
2022-11-24T09:51:03.578Z,29.98
2022-11-24T09:56:27.949Z,29.45
2022-11-24T10:01:50.411Z,21.38
2022-11-24T10:07:38.121Z,30.52
2022-11-24T10:13:30.317Z,37.50
2022-11-24T10:19:14.389Z,23.75
2022-11-24T10:25:03.255Z,17.50
2022-11-24T10:30:26.464Z,27.90
2022-11-24T10:35:53.252Z,32.33
2022-11-24T10:41:22.557Z,35.90
2022-11-24T10:46:43.626Z,33.30
2022-11-24T10:52:12.494Z,26.67
2022-11-24T10:57:36.025Z,30.90
2022-11-24T11:03:18.323Z,20.85
2022-11-24T11:08:38.722Z,23.13
2022-11-24T11:14:04.944Z,28.50
2022-11-24T11:20:01.777Z,25.40
2022-11-24T11:25:24.405Z,19.00
2022-11-24T11:31:17.878Z,24.40
2022-11-24T11:36:45.479Z,23.55
2022-11-24T11:42:53.897Z,16.25
2022-11-24T11:48:44.790Z,22.55
2022-11-24T11:54:08.419Z,25.77
2022-11-24T11:59:46.781Z,19.30
2022-11-24T12:05:28.824Z,23.75
2022-11-24T12:10:57.542Z,19.55
2022-11-24T12:16:39.744Z,22.83
2022-11-24T12:22:40.346Z,11.13
2022-11-24T12:28:00.986Z,22.77
2022-11-24T12:33:47.538Z,19.75
2022-11-24T12:39:20.223Z,20.92
2022-11-24T12:44:55.610Z,16.15
2022-11-24T12:50:18.542Z,13.95
2022-11-24T12:55:40.864Z,14.45
2022-11-24T13:01:28.384Z,19.38
2022-11-24T13:07:12.176Z,23.25
2022-11-24T13:12:33.047Z,23.05
2022-11-24T13:18:10.228Z,12.07
2022-11-24T13:23:32.364Z,17.60
2022-11-24T13:29:23.783Z,12.35
2022-11-24T13:34:45.808Z,17.13
2022-11-24T13:40:13.090Z,18.27
2022-11-24T13:45:39.700Z,16.40
2022-11-24T13:51:01.452Z,14.43
2022-11-24T13:56:25.280Z,16.00
2022-11-24T14:01:57.075Z,15.75
2022-11-24T14:07:17.615Z,14.18
2022-11-24T14:12:38.262Z,24.65
2022-11-24T14:17:58.917Z,18.13
2022-11-24T14:23:19.551Z,17.75
2022-11-24T14:28:40.954Z,14.25
2022-11-24T14:34:21.953Z,13.88
2022-11-24T14:39:43.078Z,14.50
2022-11-24T14:45:04.322Z,15.00
2022-11-24T14:50:24.898Z,14.35
2022-11-24T14:55:45.323Z,25.20
2022-11-24T15:01:27.635Z,9.85
2022-11-24T15:07:00.513Z,14.27
2022-11-24T15:12:28.725Z,21.25
2022-11-24T15:17:53.699Z,16.80
2022-11-24T15:23:33.205Z,25.17
2022-11-24T15:28:53.737Z,15.85
2022-11-24T15:34:14.549Z,20.50
2022-11-24T15:39:34.752Z,15.25
2022-11-24T15:44:55.454Z,15.27
2022-11-24T15:50:16.143Z,19.17
2022-11-24T15:55:36.617Z,21.17
2022-11-24T16:00:57.560Z,15.50
2022-11-24T16:06:24.647Z,11.95
2022-11-24T16:11:45.627Z,19.33
2022-11-24T16:17:06.322Z,17.50
2022-11-24T16:22:26.981Z,18.75
2022-11-24T16:27:47.583Z,16.88
2022-11-24T16:33:08.036Z,19.42
2022-11-24T16:38:28.453Z,18.02
2022-11-24T16:43:49.223Z,17.77
2022-11-24T16:49:10.231Z,21.63
2022-11-24T16:54:31.483Z,27.17
2022-11-24T16:59:52.001Z,16.20
2022-11-24T17:05:12.402Z,24.58
2022-11-24T17:10:32.818Z,25.92
2022-11-24T17:15:54.469Z,29.73
2022-11-24T17:21:17.555Z,24.85
2022-11-24T17:26:38.498Z,16.13
2022-11-24T17:31:58.876Z,19.40
2022-11-24T17:37:19.309Z,28.38
2022-11-24T17:42:39.934Z,17.60
2022-11-24T17:48:01.009Z,15.38
2022-11-24T17:53:21.697Z,22.33
2022-11-24T17:58:43.474Z,16.10
2022-11-24T18:04:04.541Z,13.77
2022-11-24T18:09:24.883Z,21.27
2022-11-24T18:14:45.808Z,28.92
2022-11-24T18:20:07.302Z,12.50
2022-11-24T18:25:28.053Z,17.00
2022-11-24T18:30:49.345Z,24.08
2022-11-24T18:36:13.635Z,29.00
2022-11-24T18:41:35.096Z,21.65
2022-11-24T18:46:55.747Z,15.00
2022-11-24T18:52:16.314Z,15.98
2022-11-24T18:57:36.965Z,19.67
2022-11-24T19:02:58.402Z,24.90
2022-11-24T19:08:18.869Z,26.40
2022-11-24T19:13:39.844Z,16.63
2022-11-24T19:19:02.427Z,16.80
2022-11-24T19:24:23.109Z,30.20
2022-11-24T19:29:44.031Z,30.58
2022-11-24T19:35:05.451Z,45.72
2022-11-24T19:40:26.002Z,25.25
2022-11-24T19:45:46.651Z,17.10
2022-11-24T19:51:11.765Z,18.30
2022-11-24T19:56:37.044Z,17.75
2022-11-24T20:01:58.021Z,27.70
2022-11-24T20:07:20.609Z,19.98
2022-11-24T20:12:41.055Z,21.92
2022-11-24T20:18:01.803Z,14.65
2022-11-24T20:23:22.524Z,20.88
2022-11-24T20:28:43.029Z,24.65
2022-11-24T20:34:05.158Z,22.88
2022-11-24T20:39:27.637Z,23.50
2022-11-24T20:44:47.966Z,21.23
2022-11-24T20:50:08.960Z,24.27
2022-11-24T20:55:31.843Z,16.48
2022-11-24T21:00:53.107Z,25.75
2022-11-24T21:06:14.286Z,25.33
2022-11-24T21:11:35.225Z,32.90
2022-11-24T21:16:55.665Z,28.30
2022-11-24T21:22:16.359Z,25.40
2022-11-24T21:27:37.148Z,42.20
2022-11-24T21:32:57.485Z,27.52
2022-11-24T21:38:18.002Z,33.03
2022-11-24T21:43:38.614Z,29.85
2022-11-24T21:48:59.613Z,31.50
2022-11-24T21:54:19.973Z,37.00
2022-11-24T21:59:40.776Z,28.90
2022-11-24T22:05:01.739Z,30.25
2022-11-24T22:10:22.102Z,31.40
2022-11-24T22:15:43.129Z,37.75
2022-11-24T22:21:05.250Z,39.88
2022-11-24T22:26:26.826Z,31.90
2022-11-24T22:31:47.322Z,35.03
2022-11-24T22:37:08.154Z,35.97
2022-11-24T22:42:28.607Z,33.75
2022-11-24T22:47:53.821Z,31.92
2022-11-24T22:53:14.316Z,35.75
2022-11-24T22:58:34.807Z,36.95
2022-11-24T23:03:55.634Z,37.92
2022-11-24T23:09:15.954Z,47.30
2022-11-24T23:14:36.750Z,38.03
2022-11-24T23:19:57.109Z,34.72
2022-11-24T23:25:17.450Z,33.92
2022-11-24T23:30:38.019Z,37.78
2022-11-24T23:36:02.701Z,38.30
2022-11-24T23:41:25.541Z,45.63
2022-11-24T23:46:45.917Z,42.40
2022-11-24T23:52:06.933Z,42.38
